sensor_id;sensor_type;location;lat;lon;timestamp;pressure;altitude;pressure_sealevel;temperature;humidity
17383;BME280;8809;51.892;8.384;2023-04-28T00:02:01;100513.72;;;9.24;77.75
17383;BME280;8809;51.892;8.384;2023-04-28T00:04:28;100518.09;;;9.25;77.53
17383;BME280;8809;51.892;8.384;2023-04-28T00:06:55;100514.59;;;9.25;77.61
17383;BME280;8809;51.892;8.384;2023-04-28T00:09:22;100505.00;;;9.24;77.52
17383;BME280;8809;51.892;8.384;2023-04-28T00:11:49;100509.31;;;9.23;77.52
17383;BME280;8809;51.892;8.384;2023-04-28T00:14:16;100499.75;;;9.22;77.18
17383;BME280;8809;51.892;8.384;2023-04-28T00:16:45;100495.41;;;9.23;77.46
17383;BME280;8809;51.892;8.384;2023-04-28T00:19:12;100490.22;;;9.23;77.36
17383;BME280;8809;51.892;8.384;2023-04-28T00:21:39;100483.25;;;9.22;77.74
17383;BME280;8809;51.892;8.384;2023-04-28T00:24:07;100474.56;;;9.21;77.87
17383;BME280;8809;51.892;8.384;2023-04-28T00:26:34;100471.94;;;9.21;78.41
17383;BME280;8809;51.892;8.384;2023-04-28T00:29:01;100466.75;;;9.21;77.75
17383;BME280;8809;51.892;8.384;2023-04-28T00:31:28;100466.75;;;9.21;77.55
17383;BME280;8809;51.892;8.384;2023-04-28T00:33:56;100457.16;;;9.20;77.21
17383;BME280;8809;51.892;8.384;2023-04-28T00:36:23;100462.28;;;9.19;77.54
17383;BME280;8809;51.892;8.384;2023-04-28T00:38:51;100459.75;;;9.20;78.24
17383;BME280;8809;51.892;8.384;2023-04-28T00:41:18;100456.19;;;9.18;78.56
17383;BME280;8809;51.892;8.384;2023-04-28T00:43:46;100449.25;;;9.19;78.16
17383;BME280;8809;51.892;8.384;2023-04-28T00:46:19;100451.88;;;9.19;78.92
17383;BME280;8809;51.892;8.384;2023-04-28T00:48:48;100453.59;;;9.18;78.04
17383;BME280;8809;51.892;8.384;2023-04-28T00:51:17;100444.00;;;9.17;78.65
17383;BME280;8809;51.892;8.384;2023-04-28T00:53:44;100450.97;;;9.18;78.61
17383;BME280;8809;51.892;8.384;2023-04-28T00:56:11;100448.31;;;9.17;78.02
17383;BME280;8809;51.892;8.384;2023-04-28T00:58:38;100444.00;;;9.17;78.90
17383;BME280;8809;51.892;8.384;2023-04-28T01:01:08;100443.09;;;9.17;78.48
17383;BME280;8809;51.892;8.384;2023-04-28T01:03:38;100449.19;;;9.17;79.13
17383;BME280;8809;51.892;8.384;2023-04-28T01:06:07;100437.00;;;9.16;78.39
17383;BME280;8809;51.892;8.384;2023-04-28T01:08:37;100438.72;;;9.16;77.72
17383;BME280;8809;51.892;8.384;2023-04-28T01:11:04;100430.91;;;9.16;77.74
17383;BME280;8809;51.892;8.384;2023-04-28T01:13:33;100430.91;;;9.16;77.81
17383;BME280;8809;51.892;8.384;2023-04-28T01:16:01;100419.59;;;9.15;78.10
17383;BME280;8809;51.892;8.384;2023-04-28T01:18:28;100423.09;;;9.16;78.97
17383;BME280;8809;51.892;8.384;2023-04-28T01:20:57;100410.09;;;9.16;78.68
17383;BME280;8809;51.892;8.384;2023-04-28T01:23:24;100411.78;;;9.15;79.38
17383;BME280;8809;51.892;8.384;2023-04-28T01:25:53;100416.19;;;9.16;78.07
17383;BME280;8809;51.892;8.384;2023-04-28T01:28:21;100405.78;;;9.16;78.62
17383;BME280;8809;51.892;8.384;2023-04-28T01:30:48;100408.38;;;9.16;78.79
17383;BME280;8809;51.892;8.384;2023-04-28T01:33:15;100413.56;;;9.16;79.36
17383;BME280;8809;51.892;8.384;2023-04-28T01:35:42;100408.38;;;9.16;78.65
17383;BME280;8809;51.892;8.384;2023-04-28T01:38:10;100404.94;;;9.17;77.80
17383;BME280;8809;51.892;8.384;2023-04-28T01:40:37;100399.75;;;9.17;77.79
17383;BME280;8809;51.892;8.384;2023-04-28T01:43:06;100402.34;;;9.17;78.00
17383;BME280;8809;51.892;8.384;2023-04-28T01:45:33;100401.47;;;9.17;77.54
17383;BME280;8809;51.892;8.384;2023-04-28T01:48:00;100392.75;;;9.16;77.21
17383;BME280;8809;51.892;8.384;2023-04-28T01:50:27;100390.22;;;9.18;77.46
17383;BME280;8809;51.892;8.384;2023-04-28T01:52:54;100390.22;;;9.18;77.24
17383;BME280;8809;51.892;8.384;2023-04-28T01:55:21;100388.50;;;9.18;77.64
17383;BME280;8809;51.892;8.384;2023-04-28T01:57:48;100379.88;;;9.19;77.35
17383;BME280;8809;51.892;8.384;2023-04-28T02:00:18;100379.88;;;9.19;77.08
17383;BME280;8809;51.892;8.384;2023-04-28T02:02:46;100374.69;;;9.19;77.17
17383;BME280;8809;51.892;8.384;2023-04-28T02:05:13;100375.50;;;9.18;77.03
17383;BME280;8809;51.892;8.384;2023-04-28T02:07:41;100372.06;;;9.19;77.27
17383;BME280;8809;51.892;8.384;2023-04-28T02:10:08;100361.66;;;9.19;76.67
17383;BME280;8809;51.892;8.384;2023-04-28T02:12:39;100365.09;;;9.18;77.34
17383;BME280;8809;51.892;8.384;2023-04-28T02:15:08;100369.53;;;9.21;77.48
17383;BME280;8809;51.892;8.384;2023-04-28T02:17:36;100370.44;;;9.21;77.63
17383;BME280;8809;51.892;8.384;2023-04-28T02:20:05;100367.88;;;9.23;76.85
17383;BME280;8809;51.892;8.384;2023-04-28T02:22:32;100362.63;;;9.21;77.84
17383;BME280;8809;51.892;8.384;2023-04-28T02:25:00;100361.84;;;9.24;77.26
17383;BME280;8809;51.892;8.384;2023-04-28T02:27:27;100361.84;;;9.24;77.21
17383;BME280;8809;51.892;8.384;2023-04-28T02:29:54;100364.53;;;9.25;77.47
17383;BME280;8809;51.892;8.384;2023-04-28T02:32:21;100355.00;;;9.26;77.13
17383;BME280;8809;51.892;8.384;2023-04-28T02:34:53;100349.78;;;9.26;77.10
17383;BME280;8809;51.892;8.384;2023-04-28T02:37:20;100339.47;;;9.27;76.72
17383;BME280;8809;51.892;8.384;2023-04-28T02:39:48;100338.63;;;9.28;77.33
17383;BME280;8809;51.892;8.384;2023-04-28T02:42:15;100342.19;;;9.30;77.03
17383;BME280;8809;51.892;8.384;2023-04-28T02:44:42;100337.00;;;9.30;77.11
17383;BME280;8809;51.892;8.384;2023-04-28T02:47:09;100328.34;;;9.32;77.30
17383;BME280;8809;51.892;8.384;2023-04-28T02:49:36;100334.47;;;9.32;77.59
17383;BME280;8809;51.892;8.384;2023-04-28T02:52:05;100327.50;;;9.32;77.75
17383;BME280;8809;51.892;8.384;2023-04-28T02:54:32;100329.28;;;9.34;77.56
17383;BME280;8809;51.892;8.384;2023-04-28T02:57:01;100318.88;;;9.34;78.29
17383;BME280;8809;51.892;8.384;2023-04-28T02:59:29;100317.16;;;9.34;78.00
17383;BME280;8809;51.892;8.384;2023-04-28T03:01:57;100317.16;;;9.34;77.98
17383;BME280;8809;51.892;8.384;2023-04-28T03:04:24;100314.56;;;9.34;77.97
17383;BME280;8809;51.892;8.384;2023-04-28T03:06:52;100312.03;;;9.36;78.47
17383;BME280;8809;51.892;8.384;2023-04-28T03:09:20;100307.63;;;9.35;78.65
17383;BME280;8809;51.892;8.384;2023-04-28T03:11:47;100310.31;;;9.36;77.90
17383;BME280;8809;51.892;8.384;2023-04-28T03:14:14;100306.00;;;9.37;78.10
17383;BME280;8809;51.892;8.384;2023-04-28T03:16:42;100303.41;;;9.37;78.15
17383;BME280;8809;51.892;8.384;2023-04-28T03:19:09;100301.69;;;9.37;78.90
17383;BME280;8809;51.892;8.384;2023-04-28T03:21:36;100311.19;;;9.37;78.64
17383;BME280;8809;51.892;8.384;2023-04-28T03:24:04;100308.66;;;9.38;78.18
17383;BME280;8809;51.892;8.384;2023-04-28T03:26:33;100310.38;;;9.38;77.07
17383;BME280;8809;51.892;8.384;2023-04-28T03:29:01;100300.03;;;9.39;78.30
17383;BME280;8809;51.892;8.384;2023-04-28T03:31:28;100304.41;;;9.40;77.77
17383;BME280;8809;51.892;8.384;2023-04-28T03:33:56;100297.50;;;9.41;78.96
17383;BME280;8809;51.892;8.384;2023-04-28T03:36:24;100288.88;;;9.42;79.13
17383;BME280;8809;51.892;8.384;2023-04-28T03:38:52;100282.81;;;9.43;79.02
17383;BME280;8809;51.892;8.384;2023-04-28T03:41:19;100285.41;;;9.43;78.72
17383;BME280;8809;51.892;8.384;2023-04-28T03:43:47;100285.41;;;9.43;78.44
17383;BME280;8809;51.892;8.384;2023-04-28T03:46:14;100285.41;;;9.43;79.98
17383;BME280;8809;51.892;8.384;2023-04-28T03:48:41;100280.19;;;9.43;79.80
17383;BME280;8809;51.892;8.384;2023-04-28T03:51:09;100282.81;;;9.43;79.03
17383;BME280;8809;51.892;8.384;2023-04-28T03:53:36;100281.09;;;9.43;79.83
17383;BME280;8809;51.892;8.384;2023-04-28T03:56:03;100279.38;;;9.44;79.93
17383;BME280;8809;51.892;8.384;2023-04-28T03:58:31;100276.78;;;9.44;80.68
17383;BME280;8809;51.892;8.384;2023-04-28T04:01:00;100282.94;;;9.46;80.21
17383;BME280;8809;51.892;8.384;2023-04-28T04:03:27;100273.34;;;9.45;80.35
17383;BME280;8809;51.892;8.384;2023-04-28T04:05:55;100278.56;;;9.45;80.58
17383;BME280;8809;51.892;8.384;2023-04-28T04:08:22;100278.56;;;9.45;80.56
17383;BME280;8809;51.892;8.384;2023-04-28T04:10:49;100278.56;;;9.45;80.79
17383;BME280;8809;51.892;8.384;2023-04-28T04:13:17;100285.53;;;9.46;80.76
17383;BME280;8809;51.892;8.384;2023-04-28T04:15:44;100275.13;;;9.46;81.00
17383;BME280;8809;51.892;8.384;2023-04-28T04:18:13;100275.19;;;9.47;80.66
17383;BME280;8809;51.892;8.384;2023-04-28T04:20:40;100276.91;;;9.47;81.14
17383;BME280;8809;51.892;8.384;2023-04-28T04:23:08;100277.81;;;9.47;81.61
17383;BME280;8809;51.892;8.384;2023-04-28T04:25:35;100278.69;;;9.48;81.59
17383;BME280;8809;51.892;8.384;2023-04-28T04:28:12;100276.09;;;9.48;82.91
17383;BME280;8809;51.892;8.384;2023-04-28T04:30:39;100273.47;;;9.48;83.17
17383;BME280;8809;51.892;8.384;2023-04-28T04:33:07;100271.78;;;9.48;83.13
17383;BME280;8809;51.892;8.384;2023-04-28T04:35:36;100263.06;;;9.48;83.30
17383;BME280;8809;51.892;8.384;2023-04-28T04:38:03;100263.06;;;9.48;83.71
17383;BME280;8809;51.892;8.384;2023-04-28T04:40:30;100257.88;;;9.48;83.40
17383;BME280;8809;51.892;8.384;2023-04-28T04:42:57;100269.16;;;9.48;83.89
17383;BME280;8809;51.892;8.384;2023-04-28T04:45:24;100265.69;;;9.48;84.67
17383;BME280;8809;51.892;8.384;2023-04-28T04:47:52;100258.69;;;9.47;85.04
17383;BME280;8809;51.892;8.384;2023-04-28T04:50:19;100255.25;;;9.48;85.93
17383;BME280;8809;51.892;8.384;2023-04-28T04:52:48;100256.97;;;9.47;87.23
17383;BME280;8809;51.892;8.384;2023-04-28T04:55:15;100256.00;;;9.45;87.12
17383;BME280;8809;51.892;8.384;2023-04-28T04:57:43;100257.72;;;9.45;87.29
17383;BME280;8809;51.892;8.384;2023-04-28T05:00:12;100260.41;;;9.46;88.00
17383;BME280;8809;51.892;8.384;2023-04-28T05:02:41;100248.19;;;9.45;88.21
17383;BME280;8809;51.892;8.384;2023-04-28T05:05:08;100238.69;;;9.46;88.86
17383;BME280;8809;51.892;8.384;2023-04-28T05:07:35;100238.69;;;9.46;90.13
17383;BME280;8809;51.892;8.384;2023-04-28T05:10:07;100233.47;;;9.46;89.16
17383;BME280;8809;51.892;8.384;2023-04-28T05:12:36;100230.03;;;9.47;89.81
17383;BME280;8809;51.892;8.384;2023-04-28T05:15:04;100234.44;;;9.48;89.67
17383;BME280;8809;51.892;8.384;2023-04-28T05:17:32;100232.66;;;9.47;89.43
17383;BME280;8809;51.892;8.384;2023-04-28T05:19:59;100238.00;;;9.50;89.60
17383;BME280;8809;51.892;8.384;2023-04-28T05:22:30;100231.09;;;9.52;89.94
17383;BME280;8809;51.892;8.384;2023-04-28T05:24:57;100234.59;;;9.52;90.26
17383;BME280;8809;51.892;8.384;2023-04-28T05:27:26;100242.47;;;9.54;89.35
17383;BME280;8809;51.892;8.384;2023-04-28T05:29:54;100240.75;;;9.54;89.72
17383;BME280;8809;51.892;8.384;2023-04-28T05:32:21;100240.81;;;9.56;89.39
17383;BME280;8809;51.892;8.384;2023-04-28T05:34:49;100238.22;;;9.56;90.08
17383;BME280;8809;51.892;8.384;2023-04-28T05:37:16;100242.66;;;9.58;89.68
17383;BME280;8809;51.892;8.384;2023-04-28T05:39:43;100241.84;;;9.59;89.70
17383;BME280;8809;51.892;8.384;2023-04-28T05:42:11;100243.63;;;9.60;89.83
17383;BME280;8809;51.892;8.384;2023-04-28T05:44:40;100243.66;;;9.62;90.83
17383;BME280;8809;51.892;8.384;2023-04-28T05:47:07;100242.84;;;9.63;90.43
17383;BME280;8809;51.892;8.384;2023-04-28T05:49:35;100243.78;;;9.65;91.74
17383;BME280;8809;51.892;8.384;2023-04-28T05:52:03;100239.53;;;9.67;90.69
17383;BME280;8809;51.892;8.384;2023-04-28T05:54:30;100234.44;;;9.70;91.03
17383;BME280;8809;51.892;8.384;2023-04-28T05:56:59;100227.56;;;9.72;91.89
17383;BME280;8809;51.892;8.384;2023-04-28T05:59:26;100224.13;;;9.73;92.55
17383;BME280;8809;51.892;8.384;2023-04-28T06:01:59;100223.44;;;9.77;92.34
17383;BME280;8809;51.892;8.384;2023-04-28T06:04:27;100233.97;;;9.80;93.76
17383;BME280;8809;51.892;8.384;2023-04-28T06:06:55;100226.19;;;9.82;93.81
17383;BME280;8809;51.892;8.384;2023-04-28T06:09:24;100235.91;;;9.86;93.63
17383;BME280;8809;51.892;8.384;2023-04-28T06:11:52;100235.09;;;9.87;95.92
17383;BME280;8809;51.892;8.384;2023-04-28T06:14:21;100233.44;;;9.89;98.71
17383;BME280;8809;51.892;8.384;2023-04-28T06:16:49;100232.56;;;9.88;98.16
17383;BME280;8809;51.892;8.384;2023-04-28T06:19:18;100222.13;;;9.88;98.85
17383;BME280;8809;51.892;8.384;2023-04-28T06:21:48;100223.91;;;9.89;98.75
17383;BME280;8809;51.892;8.384;2023-04-28T06:24:17;100220.44;;;9.90;99.51
17383;BME280;8809;51.892;8.384;2023-04-28T06:26:44;100219.63;;;9.91;100.00
17383;BME280;8809;51.892;8.384;2023-04-28T06:29:12;100213.59;;;9.92;100.00
17383;BME280;8809;51.892;8.384;2023-04-28T06:31:39;100209.19;;;9.91;100.00
17383;BME280;8809;51.892;8.384;2023-04-28T06:34:06;100199.72;;;9.93;100.00
17383;BME280;8809;51.892;8.384;2023-04-28T06:36:35;100199.78;;;9.95;100.00
17383;BME280;8809;51.892;8.384;2023-04-28T06:39:02;100202.41;;;9.95;100.00
17383;BME280;8809;51.892;8.384;2023-04-28T06:41:29;100194.66;;;9.96;100.00
17383;BME280;8809;51.892;8.384;2023-04-28T06:43:57;100195.63;;;10.00;100.00
17383;BME280;8809;51.892;8.384;2023-04-28T06:46:24;100194.03;;;10.03;100.00
17383;BME280;8809;51.892;8.384;2023-04-28T06:48:52;100195.88;;;10.06;100.00
17383;BME280;8809;51.892;8.384;2023-04-28T06:51:21;100187.31;;;10.10;100.00
17383;BME280;8809;51.892;8.384;2023-04-28T06:53:50;100193.53;;;10.14;100.00
17383;BME280;8809;51.892;8.384;2023-04-28T06:56:18;100187.66;;;10.18;100.00
17383;BME280;8809;51.892;8.384;2023-04-28T06:58:45;100189.53;;;10.22;100.00
17383;BME280;8809;51.892;8.384;2023-04-28T07:01:15;100198.34;;;10.25;100.00
17383;BME280;8809;51.892;8.384;2023-04-28T07:03:43;100194.09;;;10.27;100.00
17383;BME280;8809;51.892;8.384;2023-04-28T07:06:12;100193.34;;;10.31;100.00
17383;BME280;8809;51.892;8.384;2023-04-28T07:08:40;100185.59;;;10.33;100.00
17383;BME280;8809;51.892;8.384;2023-04-28T07:11:12;100183.94;;;10.35;100.00
17383;BME280;8809;51.892;8.384;2023-04-28T07:13:41;100185.78;;;10.39;100.00
17383;BME280;8809;51.892;8.384;2023-04-28T07:16:09;100188.53;;;10.42;100.00
17383;BME280;8809;51.892;8.384;2023-04-28T07:18:36;100173.00;;;10.45;100.00
17383;BME280;8809;51.892;8.384;2023-04-28T07:21:04;100177.47;;;10.49;100.00
17383;BME280;8809;51.892;8.384;2023-04-28T07:23:32;100181.97;;;10.53;100.00
17383;BME280;8809;51.892;8.384;2023-04-28T07:25:59;100182.97;;;10.57;100.00
17383;BME280;8809;51.892;8.384;2023-04-28T07:28:28;100176.13;;;10.60;100.00
17383;BME280;8809;51.892;8.384;2023-04-28T07:30:56;100175.34;;;10.63;100.00
17383;BME280;8809;51.892;8.384;2023-04-28T07:33:24;100171.97;;;10.65;100.00
17383;BME280;8809;51.892;8.384;2023-04-28T07:35:51;100179.03;;;10.69;100.00
17383;BME280;8809;51.892;8.384;2023-04-28T07:38:18;100170.44;;;10.72;100.00
17383;BME280;8809;51.892;8.384;2023-04-28T07:40:46;100165.34;;;10.76;100.00
17383;BME280;8809;51.892;8.384;2023-04-28T07:43:14;100169.03;;;10.82;100.00
17383;BME280;8809;51.892;8.384;2023-04-28T07:45:43;100168.31;;;10.87;100.00
17383;BME280;8809;51.892;8.384;2023-04-28T07:48:13;100164.09;;;10.91;100.00
17383;BME280;8809;51.892;8.384;2023-04-28T07:50:41;100165.09;;;10.94;100.00
17383;BME280;8809;51.892;8.384;2023-04-28T07:53:08;100161.75;;;10.98;100.00
17383;BME280;8809;51.892;8.384;2023-04-28T07:55:36;100153.25;;;11.04;100.00
17383;BME280;8809;51.892;8.384;2023-04-28T07:58:07;100151.66;;;11.09;100.00
17383;BME280;8809;51.892;8.384;2023-04-28T08:00:34;100144.00;;;11.15;100.00
17383;BME280;8809;51.892;8.384;2023-04-28T08:03:03;100143.38;;;11.22;100.00
17383;BME280;8809;51.892;8.384;2023-04-28T08:05:31;100136.63;;;11.29;100.00
17383;BME280;8809;51.892;8.384;2023-04-28T08:07:58;100127.28;;;11.37;100.00
17383;BME280;8809;51.892;8.384;2023-04-28T08:10:26;100121.41;;;11.44;100.00
17383;BME280;8809;51.892;8.384;2023-04-28T08:12:54;100120.81;;;11.52;100.00
17383;BME280;8809;51.892;8.384;2023-04-28T08:15:21;100114.97;;;11.61;100.00
17383;BME280;8809;51.892;8.384;2023-04-28T08:17:49;100108.38;;;11.74;100.00
17383;BME280;8809;51.892;8.384;2023-04-28T08:20:18;100111.41;;;11.87;100.00
17383;BME280;8809;51.892;8.384;2023-04-28T08:22:45;100103.16;;;12.04;100.00
17383;BME280;8809;51.892;8.384;2023-04-28T08:25:13;100115.00;;;12.22;100.00
17383;BME280;8809;51.892;8.384;2023-04-28T08:27:41;100124.13;;;12.37;100.00
17383;BME280;8809;51.892;8.384;2023-04-28T08:30:09;100127.91;;;12.48;100.00
17383;BME280;8809;51.892;8.384;2023-04-28T08:32:36;100135.06;;;12.55;100.00
17383;BME280;8809;51.892;8.384;2023-04-28T08:35:23;100134.25;;;12.57;100.00
17383;BME280;8809;51.892;8.384;2023-04-28T08:38:12;100137.88;;;12.62;100.00
17383;BME280;8809;51.892;8.384;2023-04-28T08:40:42;100148.28;;;12.61;100.00
17383;BME280;8809;51.892;8.384;2023-04-28T08:43:10;100134.41;;;12.63;100.00
17383;BME280;8809;51.892;8.384;2023-04-28T08:45:41;100138.00;;;12.67;100.00
17383;BME280;8809;51.892;8.384;2023-04-28T08:48:17;100133.72;;;12.71;100.00
17383;BME280;8809;51.892;8.384;2023-04-28T08:50:50;100144.22;;;12.72;100.00
17383;BME280;8809;51.892;8.384;2023-04-28T08:53:23;100149.59;;;12.77;100.00
17383;BME280;8809;51.892;8.384;2023-04-28T08:55:53;100156.66;;;12.81;100.00
17383;BME280;8809;51.892;8.384;2023-04-28T08:58:22;100160.16;;;12.81;100.00
17383;BME280;8809;51.892;8.384;2023-04-28T09:00:50;100165.41;;;12.81;100.00
17383;BME280;8809;51.892;8.384;2023-04-28T09:03:20;100165.44;;;12.83;100.00
17383;BME280;8809;51.892;8.384;2023-04-28T09:05:50;100170.69;;;12.83;100.00
17383;BME280;8809;51.892;8.384;2023-04-28T09:08:18;100160.22;;;12.83;100.00
17383;BME280;8809;51.892;8.384;2023-04-28T09:10:45;100154.13;;;12.84;100.00
17383;BME280;8809;51.892;8.384;2023-04-28T09:13:24;100154.09;;;12.82;100.00
17383;BME280;8809;51.892;8.384;2023-04-28T09:15:58;100154.94;;;12.81;100.00
17383;BME280;8809;51.892;8.384;2023-04-28T09:18:29;100152.22;;;12.77;100.00
17383;BME280;8809;51.892;8.384;2023-04-28T09:21:07;100132.06;;;12.74;100.00
17383;BME280;8809;51.892;8.384;2023-04-28T09:23:45;100132.91;;;12.73;100.00
17383;BME280;8809;51.892;8.384;2023-04-28T09:26:13;100129.38;;;12.71;100.00
17383;BME280;8809;51.892;8.384;2023-04-28T09:28:41;100125.81;;;12.69;100.00
17383;BME280;8809;51.892;8.384;2023-04-28T09:31:22;100120.56;;;12.69;100.00
17383;BME280;8809;51.892;8.384;2023-04-28T09:33:56;100115.34;;;12.69;100.00
17383;BME280;8809;51.892;8.384;2023-04-28T09:36:29;100104.88;;;12.69;100.00
17383;BME280;8809;51.892;8.384;2023-04-28T09:38:58;100096.31;;;12.75;100.00
17383;BME280;8809;51.892;8.384;2023-04-28T09:41:35;100092.94;;;12.80;100.00
17383;BME280;8809;51.892;8.384;2023-04-28T09:44:16;100096.50;;;12.82;100.00
17383;BME280;8809;51.892;8.384;2023-04-28T09:46:45;100105.28;;;12.84;100.00
17383;BME280;8809;51.892;8.384;2023-04-28T09:49:17;100106.13;;;12.83;100.00
17383;BME280;8809;51.892;8.384;2023-04-28T09:51:49;100103.59;;;12.86;100.00
17383;BME280;8809;51.892;8.384;2023-04-28T09:54:20;100112.28;;;12.85;100.00
17383;BME280;8809;51.892;8.384;2023-04-28T09:56:49;100110.59;;;12.87;100.00
17383;BME280;8809;51.892;8.384;2023-04-28T09:59:18;100110.59;;;12.89;100.00
17383;BME280;8809;51.892;8.384;2023-04-28T10:01:49;100107.13;;;12.90;100.00
17383;BME280;8809;51.892;8.384;2023-04-28T10:04:20;100097.63;;;12.93;100.00
17383;BME280;8809;51.892;8.384;2023-04-28T10:06:50;100102.97;;;12.98;100.00
17383;BME280;8809;51.892;8.384;2023-04-28T10:09:18;100095.13;;;12.98;100.00
17383;BME280;8809;51.892;8.384;2023-04-28T10:11:51;100088.22;;;13.01;100.00
17383;BME280;8809;51.892;8.384;2023-04-28T10:14:19;100088.34;;;13.08;100.00
17383;BME280;8809;51.892;8.384;2023-04-28T10:16:47;100096.44;;;13.15;100.00
17383;BME280;8809;51.892;8.384;2023-04-28T10:19:16;100098.28;;;13.19;100.00
17383;BME280;8809;51.892;8.384;2023-04-28T10:21:57;100094.03;;;13.24;100.00
17383;BME280;8809;51.892;8.384;2023-04-28T10:24:32;100099.31;;;13.26;100.00
17383;BME280;8809;51.892;8.384;2023-04-28T10:27:05;100095.81;;;13.27;100.00
17383;BME280;8809;51.892;8.384;2023-04-28T10:29:34;100101.19;;;13.31;100.00
17383;BME280;8809;51.892;8.384;2023-04-28T10:32:15;100101.25;;;13.36;100.00
17383;BME280;8809;51.892;8.384;2023-04-28T10:34:43;100090.94;;;13.42;100.00
17383;BME280;8809;51.892;8.384;2023-04-28T10:37:12;100092.78;;;13.48;100.00
17383;BME280;8809;51.892;8.384;2023-04-28T10:42:53;100089.59;;;13.61;100.00
17383;BME280;8809;51.892;8.384;2023-04-28T10:46:03;100088.88;;;13.68;100.00
17383;BME280;8809;51.892;8.384;2023-04-28T10:49:02;100082.03;;;13.76;100.00
17383;BME280;8809;51.892;8.384;2023-04-28T10:51:31;100077.81;;;13.83;100.00
17383;BME280;8809;51.892;8.384;2023-04-28T10:54:15;100074.50;;;13.91;100.00
17383;BME280;8809;51.892;8.384;2023-04-28T10:57:19;100079.06;;;14.01;100.00
17383;BME280;8809;51.892;8.384;2023-04-28T10:59:48;100073.09;;;14.10;100.00
17383;BME280;8809;51.892;8.384;2023-04-28T11:02:38;100070.66;;;14.19;100.00
17383;BME280;8809;51.892;8.384;2023-04-28T11:05:14;100072.53;;;14.26;100.00
17383;BME280;8809;51.892;8.384;2023-04-28T11:11:20;100073.69;;;14.40;100.00
17383;BME280;8809;51.892;8.384;2023-04-28T11:13:49;100066.75;;;14.44;100.00
17383;BME280;8809;51.892;8.384;2023-04-28T11:16:18;100066.88;;;14.50;100.00
17383;BME280;8809;51.892;8.384;2023-04-28T11:18:51;100070.47;;;14.57;100.00
17383;BME280;8809;51.892;8.384;2023-04-28T11:21:19;100071.38;;;14.57;100.00
17383;BME280;8809;51.892;8.384;2023-04-28T11:23:47;100060.91;;;14.62;100.00
17383;BME280;8809;51.892;8.384;2023-04-28T11:26:14;100051.41;;;14.67;100.00
17383;BME280;8809;51.892;8.384;2023-04-28T11:28:53;100045.34;;;14.72;100.00
17383;BME280;8809;51.892;8.384;2023-04-28T11:31:23;100044.53;;;14.75;100.00
17383;BME280;8809;51.892;8.384;2023-04-28T11:33:53;100046.31;;;14.77;100.00
17383;BME280;8809;51.892;8.384;2023-04-28T11:36:23;100053.34;;;14.78;100.00
17383;BME280;8809;51.892;8.384;2023-04-28T11:38:51;100048.16;;;14.83;100.00
17383;BME280;8809;51.892;8.384;2023-04-28T11:41:18;100040.38;;;14.91;100.00
17383;BME280;8809;51.892;8.384;2023-04-28T11:43:45;100044.81;;;14.95;100.00
17383;BME280;8809;51.892;8.384;2023-04-28T11:46:18;100040.50;;;14.98;100.00
17383;BME280;8809;51.892;8.384;2023-04-28T11:48:46;100039.72;;;15.05;100.00
17383;BME280;8809;51.892;8.384;2023-04-28T11:51:30;100051.19;;;15.12;100.00
17383;BME280;8809;51.892;8.384;2023-04-28T11:53:58;100036.44;;;15.18;100.00
17383;BME280;8809;51.892;8.384;2023-04-28T11:56:26;100039.16;;;15.26;100.00
17383;BME280;8809;51.892;8.384;2023-04-28T11:59:04;100044.47;;;15.31;100.00
17383;BME280;8809;51.892;8.384;2023-04-28T12:01:42;100034.94;;;15.40;100.00
17383;BME280;8809;51.892;8.384;2023-04-28T12:04:10;100035.03;;;15.48;100.00
17383;BME280;8809;51.892;8.384;2023-04-28T12:06:38;100030.81;;;15.54;100.00
17383;BME280;8809;51.892;8.384;2023-04-28T12:09:15;100028.38;;;15.71;100.00
17383;BME280;8809;51.892;8.384;2023-04-28T12:11:53;100018.00;;;15.86;100.00
17383;BME280;8809;51.892;8.384;2023-04-28T12:14:21;100017.31;;;16.03;100.00
17383;BME280;8809;51.892;8.384;2023-04-28T12:16:50;100015.66;;;16.15;100.00
17383;BME280;8809;51.892;8.384;2023-04-28T12:19:17;100020.97;;;16.18;100.00
17383;BME280;8809;51.892;8.384;2023-04-28T12:22:02;100026.28;;;16.21;100.00
17383;BME280;8809;51.892;8.384;2023-04-28T12:24:29;100022.75;;;16.19;100.00
17383;BME280;8809;51.892;8.384;2023-04-28T12:27:14;100020.09;;;16.18;100.00
17383;BME280;8809;51.892;8.384;2023-04-28T12:29:42;100023.66;;;16.23;100.00
17383;BME280;8809;51.892;8.384;2023-04-28T12:32:12;100026.28;;;16.23;100.00
17383;BME280;8809;51.892;8.384;2023-04-28T12:34:41;100020.13;;;16.21;100.00
17383;BME280;8809;51.892;8.384;2023-04-28T12:37:08;100008.75;;;16.25;100.00
17383;BME280;8809;51.892;8.384;2023-04-28T12:39:39;100010.56;;;16.30;100.00
17383;BME280;8809;51.892;8.384;2023-04-28T12:42:06;100013.19;;;16.30;100.00
17383;BME280;8809;51.892;8.384;2023-04-28T12:44:38;100007.09;;;16.33;100.00
17383;BME280;8809;51.892;8.384;2023-04-28T12:47:06;100006.25;;;16.40;100.00
17383;BME280;8809;51.892;8.384;2023-04-28T12:49:37;100008.97;;;16.49;100.00
17383;BME280;8809;51.892;8.384;2023-04-28T12:52:04;100015.19;;;16.57;100.00
17383;BME280;8809;51.892;8.384;2023-04-28T12:54:32;100010.66;;;16.44;100.00
17383;BME280;8809;51.892;8.384;2023-04-28T12:57:00;100018.56;;;16.44;100.00
17383;BME280;8809;51.892;8.384;2023-04-28T12:59:27;100016.72;;;16.34;100.00
17383;BME280;8809;51.892;8.384;2023-04-28T13:01:54;100021.06;;;16.29;100.00
17383;BME280;8809;51.892;8.384;2023-04-28T13:04:21;100015.84;;;16.30;100.00
17383;BME280;8809;51.892;8.384;2023-04-28T13:06:51;100021.91;;;16.22;100.00
17383;BME280;8809;51.892;8.384;2023-04-28T13:09:19;100022.72;;;16.18;100.00
17383;BME280;8809;51.892;8.384;2023-04-28T13:11:46;100032.34;;;16.16;100.00
17383;BME280;8809;51.892;8.384;2023-04-28T13:14:14;100023.56;;;16.14;100.00
17383;BME280;8809;51.892;8.384;2023-04-28T13:16:41;100017.44;;;16.16;100.00
17383;BME280;8809;51.892;8.384;2023-04-28T13:19:08;100016.56;;;16.14;100.00